Helgafell — OZ2049 — position and weather

sailwx.info

Track history (hours):
 
Tides and Currents Weather Stations Pressure Air Temp Water Temp Dewpoint Dewpoint Depression Visibility Wind Speed Wind Dir Waves Ship Positions

Helgafell

Last reported at 2017-Dec-11 15:00 UTC. Time now 2017-Dec-14 04:02 UTC.
Position N 61°54' W 006°06'.

Type: Cargo ship. MMSI: 231355978.

Wind from 340 at 17 knots

Barometer 991.8 mb
Air temperature 5.9 ° C
Visibility: greater than 10.8 NM

Date/timePositionNaut miles runAvg speedWind from/ knotsBaromVisibWave heightAir tempDewpointWater temp
2017-Dec-11 15:00N 61°54' W 006°06'4414.7 340 / 17991.810.8 5.9
2017-Dec-11 12:00N 61°42' W 004°36'4013.4 350 / 19988.110.8 6.0
2017-Dec-11 09:00N 61°36' W 003°12'4715.6 350 / 16984.510.8 5.2
2017-Dec-11 06:00N 61°12' W 001°48'4514.9 350 / 16980.610.8 5.8
2017-Dec-11 03:00N 60°48' W 000°30'13214.7 340 / 12976.810.8 5.0
2017-Dec-10 18:00N 59°24' E 002°54'4113.8 260 / 12973.210.8 4.9
2017-Dec-10 15:00N 59°00' E 004°00'1519.2 230 / 12974.210.8 4.8
2017-Dec-10 14:13N 58°49' E 004°19'315.1
2017-Dec-10 14:01N 58°47' E 004°24'815.3
2017-Dec-10 13:30N 58°42' E 004°36'815.7
2017-Dec-10 13:00N 58°38' E 004°48'815.7
2017-Dec-10 12:30N 58°33' E 005°00'815.5
2017-Dec-10 12:00N 58°28' E 005°11'2126.0
2017-Dec-10 12:00N 58°30' E 005°12'918.8 210 / 6976.510.8 4.2
2017-Dec-10 11:30N 58°23' E 005°22'815.7
2017-Dec-10 11:00N 58°17' E 005°33'815.9
2017-Dec-10 10:30N 58°13' E 005°45'815.9
2017-Dec-10 10:00N 58°07' E 005°57'816.2
2017-Dec-10 09:31N 58°02' E 006°08'816.4
2017-Dec-10 09:01N 57°56' E 006°19'3153.6
2017-Dec-10 09:00N 57°54' E 006°18'815.9 220 / 6980.010.8 2.5
2017-Dec-10 08:30N 57°51' E 006°32'816.2
2017-Dec-10 08:01N 57°49' E 006°46'815.8
2017-Dec-10 07:31N 57°48' E 007°01'916.6
2017-Dec-10 07:00N 57°48' E 007°17'816.5
2017-Dec-10 06:30N 57°48' E 007°32'816.8
2017-Dec-10 06:00N 57°47' E 007°48'7743.8
2017-Dec-10 06:00N 57°48' E 008°00'2 3.6 250 / 19982.010.8 3.7
2017-Dec-10 05:30N 57°47' E 008°03'815.6
2017-Dec-10 04:58N 57°47' E 008°18'815.3
2017-Dec-10 04:25N 57°48' E 008°34'615.2
2017-Dec-10 04:00N 57°49' E 008°46'1413.8
2017-Dec-10 03:00N 57°48' E 009°12'2816.3 250 / 16983.010.8 4.8
2017-Dec-10 01:15N 57°50' E 010°05'415.6
2017-Dec-10 01:01N 57°50' E 010°12'815.2
2017-Dec-10 00:31N 57°50' E 010°27'714.8
2017-Dec-10 00:01N 57°50' E 010°40'713.4
2017-Dec-09 23:30N 57°47' E 010°52'714.7
2017-Dec-09 23:00N 57°42' E 011°01'815.0
2017-Dec-09 22:30N 57°36' E 011°11'714.4
2017-Dec-09 22:01N 57°31' E 011°21'713.9
2017-Dec-09 21:30N 57°27' E 011°30'713.3
2017-Dec-09 21:01N 57°22' E 011°39'713.7
2017-Dec-09 20:31N 57°17' E 011°48'713.4
2017-Dec-09 20:01N 57°12' E 011°57'713.6
2017-Dec-09 19:30N 57°07' E 012°06'5 9.4
2017-Dec-09 19:01N 57°07' E 012°14'0 0.0
2017-Dec-09 09:06N 57°07' E 012°14'2 6.1
2017-Dec-09 08:51N 57°05' E 012°13'8312.4
2017-Dec-09 02:13N 56°06' E 010°29'316.1
2017-Dec-09 02:01N 56°07' E 010°23'611.0
2017-Dec-09 01:31N 56°09' E 010°14'0 0.2
2017-Dec-09 00:59N 56°09' E 010°14'0 0.0
2017-Dec-09 00:29N 56°09' E 010°14'0 0.0
2017-Dec-08 23:53N 56°09' E 010°14'0 0.0
2017-Dec-08 23:29N 56°09' E 010°14'0 0.0
2017-Dec-08 21:41N 56°09' E 010°14'0 0.0
2017-Dec-08 21:29N 56°09' E 010°14'0 0.0
2017-Dec-08 20:59N 56°09' E 010°14'0 0.0
2017-Dec-08 20:29N 56°09' E 010°14'0 0.0
2017-Dec-08 19:59N 56°09' E 010°14'0 0.0
2017-Dec-08 19:29N 56°09' E 010°14'0 0.0
2017-Dec-08 18:56N 56°09' E 010°14'0 0.0
2017-Dec-08 18:29N 56°09' E 010°14'0 0.0
2017-Dec-08 17:59N 56°09' E 010°14'0 0.0
2017-Dec-08 17:29N 56°09' E 010°14'0 0.0
2017-Dec-08 16:53N 56°09' E 010°14'0 0.0
2017-Dec-08 16:26N 56°09' E 010°14'0 0.0
2017-Dec-08 15:59N 56°09' E 010°14'0 0.2
2017-Dec-08 15:30N 56°09' E 010°14'2 5.0
2017-Dec-08 15:01N 56°08' E 010°18'5315.1
2017-Dec-08 11:29N 55°21' E 011°02'816.0
2017-Dec-08 11:00N 55°14' E 011°06'816.0
2017-Dec-08 10:31N 55°06' E 011°03'816.4
2017-Dec-08 10:01N 54°58' E 010°60'815.3
2017-Dec-08 09:31N 54°51' E 010°53'816.3
2017-Dec-08 09:00N 54°43' E 010°53'816.2
2017-Dec-08 08:30N 54°37' E 010°44'917.4
2017-Dec-08 08:01N 54°33' E 010°31'22 6.7
2017-Dec-08 04:46N 54°21' E 009°60'2 8.1
2017-Dec-08 04:29N 54°21' E 009°56'4 7.9
2017-Dec-08 04:00N 54°22' E 009°50'4 8.2
2017-Dec-08 03:30N 54°20' E 009°44'4 7.4
2017-Dec-08 03:01N 54°17' E 009°39'4 7.3
2017-Dec-08 02:30N 54°14' E 009°36'3 6.3
2017-Dec-08 02:00N 54°12' E 009°32'4 7.5
2017-Dec-08 01:30N 54°10' E 009°26'4 7.7
2017-Dec-08 01:01N 54°09' E 009°21'4 8.1
2017-Dec-08 00:30N 54°05' E 009°19'3 5.3
2017-Dec-08 00:01N 54°02' E 009°18'3 6.6
2017-Dec-07 23:30N 53°59' E 009°17'3 6.0
2017-Dec-07 23:01N 53°56' E 009°13'1 2.6
2017-Dec-07 22:30N 53°55' E 009°12'3 5.3
2017-Dec-07 22:00N 53°54' E 009°09'0 0.0
2017-Dec-07 21:30N 53°54' E 009°09'0 0.3
2017-Dec-07 21:00N 53°54' E 009°09'2 3.3
2017-Dec-07 20:30N 53°53' E 009°06'0 0.3
2017-Dec-07 20:01N 53°53' E 009°06'0 0.2
2017-Dec-07 19:30N 53°53' E 009°06'0 0.4
2017-Dec-07 19:01N 53°53' E 009°06'0 0.1
2017-Dec-07 18:30N 53°53' E 009°06'0 0.3
2017-Dec-07 18:00N 53°53' E 009°06'4 8.0
2017-Dec-07 17:30N 53°51' E 008°60'816.2
2017-Dec-07 17:00N 53°51' E 008°46'2 3.7
2017-Dec-07 16:31N 53°52' E 008°43'0 0.0
2017-Dec-07 16:00N 53°52' E 008°43'0 0.0
2017-Dec-07 15:27N 53°52' E 008°43'0 0.0
2017-Dec-07 14:57N 53°52' E 008°43'0 0.0
2017-Dec-07 14:30N 53°52' E 008°43'0 0.0
2017-Dec-07 14:00N 53°52' E 008°43'0 0.0
2017-Dec-07 13:30N 53°52' E 008°43'0 0.0
2017-Dec-07 13:00N 53°52' E 008°43'0 0.0
2017-Dec-07 12:30N 53°52' E 008°43'0 0.0
2017-Dec-07 12:00N 53°52' E 008°43'0 0.0
2017-Dec-07 11:30N 53°52' E 008°43'0 0.0
2017-Dec-07 10:54N 53°52' E 008°43'0 0.0
2017-Dec-07 10:30N 53°52' E 008°43'0 0.1
2017-Dec-07 10:00N 53°52' E 008°44'2 4.5
2017-Dec-07 09:30N 53°54' E 008°42'612.0
2017-Dec-07 09:00N 53°58' E 008°34'713.7
2017-Dec-07 08:30N 53°59' E 008°23'714.9
2017-Dec-07 08:00N 53°59' E 008°10'7415.6
2017-Dec-07 03:15N 53°43' E 006°07'416.2
2017-Dec-07 03:00N 53°42' E 006°01'916.3
2017-Dec-07 02:29N 53°39' E 005°47'816.3
2017-Dec-07 02:00N 53°36' E 005°35'816.4
2017-Dec-07 01:31N 53°33' E 005°23'816.3
2017-Dec-07 01:01N 53°30' E 005°10'816.6
2017-Dec-07 00:31N 53°28' E 004°57'816.3
2017-Dec-07 00:00N 53°24' E 004°45'816.1
2017-Dec-06 23:29N 53°16' E 004°38'816.4
2017-Dec-06 23:00N 53°09' E 004°31'816.2
2017-Dec-06 22:30N 53°03' E 004°24'816.3
2017-Dec-06 22:01N 52°56' E 004°17'816.3
2017-Dec-06 21:30N 52°49' E 004°10'816.3
2017-Dec-06 21:01N 52°42' E 004°04'45 1.7
2017-Dec-05 18:00N 52°18' E 003°00'184 7.7 220 / 81028.010.8 8.0
2017-Dec-04 18:00N 54°42' W 000°12'5016.6 220 / 161025.210.8 7.9
2017-Dec-04 15:00N 55°30' W 000°36'6722.4 230 / 161023.410.8 8.2
2017-Dec-04 12:00N 56°36' W 001°00'3412.0 260 / 161022.610.8 8.2
2017-Dec-04 09:10N 57°07' W 001°25'316.8
2017-Dec-04 09:00N 57°10' W 001°27'3275.9
2017-Dec-04 09:00N 57°12' W 001°30'712.4 260 / 61021.810.8 7.5
2017-Dec-04 08:25N 57°19' W 001°32'3916.3
2017-Dec-04 06:00N 57°54' W 002°06'4115.7 250 / 121020.010.8 8.6
2017-Dec-04 03:23N 58°29' W 002°46'616.1
2017-Dec-04 03:00N 58°34' W 002°52'5327.4
2017-Dec-04 03:00N 58°30' W 002°48'1123.7 270 / 61019.2 5.4 8.1
2017-Dec-04 02:30N 58°40' W 002°60'5 9.1
2017-Dec-04 02:00N 58°43' W 003°06'4 7.4
2017-Dec-04 01:27N 58°44' W 003°14'511.6
2017-Dec-04 01:00N 58°45' W 003°23'1515.3
2017-Dec-04 00:00N 58°54' W 003°48'4916.5 290 / 101018.910.8 9.2
2017-Dec-03 21:00N 59°18' W 005°12'4916.3 290 1018.610.8
2017-Dec-03 18:00N 59°42' W 006°36'5117.0 300 / 101018.710.8 8.9
2017-Dec-03 15:00N 60°06' W 008°06'5117.1 300 / 121018.010.8 8.8
2017-Dec-03 12:00N 60°36' W 009°30'4715.8 300 / 161018.510.8 8.1
2017-Dec-03 09:00N 61°00' W 010°54'5016.8 300 / 161016.8 5.4 8.0
2017-Dec-03 06:00N 61°30' W 012°18'4113.7 280 / 161015.810.8 7.7
2017-Dec-03 03:00N 61°48' W 013°36'9716.1 280 / 171015.210.8 7.8
2017-Dec-02 21:00N 62°36' W 016°36'4214.2 280 / 251014.010.8 7.0
2017-Dec-02 18:00N 62°54' W 018°00'   270 / 251012.410.8 6.7
Track history (hours):
 
Tides and Currents Weather Stations Pressure Air Temp Water Temp Dewpoint Dewpoint Depression Visibility Wind Speed Wind Dir Waves Ship Positions

Helgafell

Last reported at 2017-Dec-11 15:00 UTC. Time now 2017-Dec-14 04:02 UTC.
Position N 61°54' W 006°06'.

Type: Cargo ship. MMSI: 231355978.

Wind from 340 at 17 knots

Barometer 991.8 mb
Air temperature 5.9 ° C
Visibility: greater than 10.8 NM

Date/timePositionNaut miles runAvg speedWind from/ knotsBaromVisibWave heightAir tempDewpointWater temp
2017-Dec-11 15:00N 61°54' W 006°06'4414.7 340 / 17991.810.8 5.9
2017-Dec-11 12:00N 61°42' W 004°36'4013.4 350 / 19988.110.8 6.0
2017-Dec-11 09:00N 61°36' W 003°12'4715.6 350 / 16984.510.8 5.2
2017-Dec-11 06:00N 61°12' W 001°48'4514.9 350 / 16980.610.8 5.8
2017-Dec-11 03:00N 60°48' W 000°30'13214.7 340 / 12976.810.8 5.0
2017-Dec-10 18:00N 59°24' E 002°54'4113.8 260 / 12973.210.8 4.9
2017-Dec-10 15:00N 59°00' E 004°00'1519.2 230 / 12974.210.8 4.8
2017-Dec-10 14:13N 58°49' E 004°19'315.1
2017-Dec-10 14:01N 58°47' E 004°24'815.3
2017-Dec-10 13:30N 58°42' E 004°36'815.7
2017-Dec-10 13:00N 58°38' E 004°48'815.7
2017-Dec-10 12:30N 58°33' E 005°00'815.5
2017-Dec-10 12:00N 58°28' E 005°11'2126.0
2017-Dec-10 12:00N 58°30' E 005°12'918.8 210 / 6976.510.8 4.2
2017-Dec-10 11:30N 58°23' E 005°22'815.7
2017-Dec-10 11:00N 58°17' E 005°33'815.9
2017-Dec-10 10:30N 58°13' E 005°45'815.9
2017-Dec-10 10:00N 58°07' E 005°57'816.2
2017-Dec-10 09:31N 58°02' E 006°08'816.4
2017-Dec-10 09:01N 57°56' E 006°19'3153.6
2017-Dec-10 09:00N 57°54' E 006°18'815.9 220 / 6980.010.8 2.5
2017-Dec-10 08:30N 57°51' E 006°32'816.2
2017-Dec-10 08:01N 57°49' E 006°46'815.8
2017-Dec-10 07:31N 57°48' E 007°01'916.6
2017-Dec-10 07:00N 57°48' E 007°17'816.5
2017-Dec-10 06:30N 57°48' E 007°32'816.8
2017-Dec-10 06:00N 57°47' E 007°48'7743.8
2017-Dec-10 06:00N 57°48' E 008°00'2 3.6 250 / 19982.010.8 3.7
2017-Dec-10 05:30N 57°47' E 008°03'815.6
2017-Dec-10 04:58N 57°47' E 008°18'815.3
2017-Dec-10 04:25N 57°48' E 008°34'615.2
2017-Dec-10 04:00N 57°49' E 008°46'1413.8
2017-Dec-10 03:00N 57°48' E 009°12'2816.3 250 / 16983.010.8 4.8
2017-Dec-10 01:15N 57°50' E 010°05'415.6
2017-Dec-10 01:01N 57°50' E 010°12'815.2
2017-Dec-10 00:31N 57°50' E 010°27'714.8
2017-Dec-10 00:01N 57°50' E 010°40'713.4
2017-Dec-09 23:30N 57°47' E 010°52'714.7
2017-Dec-09 23:00N 57°42' E 011°01'815.0
2017-Dec-09 22:30N 57°36' E 011°11'714.4
2017-Dec-09 22:01N 57°31' E 011°21'713.9
2017-Dec-09 21:30N 57°27' E 011°30'713.3
2017-Dec-09 21:01N 57°22' E 011°39'713.7
2017-Dec-09 20:31N 57°17' E 011°48'713.4
2017-Dec-09 20:01N 57°12' E 011°57'713.6
2017-Dec-09 19:30N 57°07' E 012°06'5 9.4
2017-Dec-09 19:01N 57°07' E 012°14'0 0.0
2017-Dec-09 09:06N 57°07' E 012°14'2 6.1
2017-Dec-09 08:51N 57°05' E 012°13'8312.4
2017-Dec-09 02:13N 56°06' E 010°29'316.1
2017-Dec-09 02:01N 56°07' E 010°23'611.0
2017-Dec-09 01:31N 56°09' E 010°14'0 0.2
2017-Dec-09 00:59N 56°09' E 010°14'0 0.0
2017-Dec-09 00:29N 56°09' E 010°14'0 0.0
2017-Dec-08 23:53N 56°09' E 010°14'0 0.0
2017-Dec-08 23:29N 56°09' E 010°14'0 0.0
2017-Dec-08 21:41N 56°09' E 010°14'0 0.0
2017-Dec-08 21:29N 56°09' E 010°14'0 0.0
2017-Dec-08 20:59N 56°09' E 010°14'0 0.0
2017-Dec-08 20:29N 56°09' E 010°14'0 0.0
2017-Dec-08 19:59N 56°09' E 010°14'0 0.0
2017-Dec-08 19:29N 56°09' E 010°14'0 0.0
2017-Dec-08 18:56N 56°09' E 010°14'0 0.0
2017-Dec-08 18:29N 56°09' E 010°14'0 0.0
2017-Dec-08 17:59N 56°09' E 010°14'0 0.0
2017-Dec-08 17:29N 56°09' E 010°14'0 0.0
2017-Dec-08 16:53N 56°09' E 010°14'0 0.0
2017-Dec-08 16:26N 56°09' E 010°14'0 0.0
2017-Dec-08 15:59N 56°09' E 010°14'0 0.2
2017-Dec-08 15:30N 56°09' E 010°14'2 5.0
2017-Dec-08 15:01N 56°08' E 010°18'5315.1
2017-Dec-08 11:29N 55°21' E 011°02'816.0
2017-Dec-08 11:00N 55°14' E 011°06'816.0
2017-Dec-08 10:31N 55°06' E 011°03'816.4
2017-Dec-08 10:01N 54°58' E 010°60'815.3
2017-Dec-08 09:31N 54°51' E 010°53'816.3
2017-Dec-08 09:00N 54°43' E 010°53'816.2
2017-Dec-08 08:30N 54°37' E 010°44'917.4
2017-Dec-08 08:01N 54°33' E 010°31'22 6.7
2017-Dec-08 04:46N 54°21' E 009°60'2 8.1
2017-Dec-08 04:29N 54°21' E 009°56'4 7.9
2017-Dec-08 04:00N 54°22' E 009°50'4 8.2
2017-Dec-08 03:30N 54°20' E 009°44'4 7.4
2017-Dec-08 03:01N 54°17' E 009°39'4 7.3
2017-Dec-08 02:30N 54°14' E 009°36'3 6.3
2017-Dec-08 02:00N 54°12' E 009°32'4 7.5
2017-Dec-08 01:30N 54°10' E 009°26'4 7.7
2017-Dec-08 01:01N 54°09' E 009°21'4 8.1
2017-Dec-08 00:30N 54°05' E 009°19'3 5.3
2017-Dec-08 00:01N 54°02' E 009°18'3 6.6
2017-Dec-07 23:30N 53°59' E 009°17'3 6.0
2017-Dec-07 23:01N 53°56' E 009°13'1 2.6
2017-Dec-07 22:30N 53°55' E 009°12'3 5.3
2017-Dec-07 22:00N 53°54' E 009°09'0 0.0
2017-Dec-07 21:30N 53°54' E 009°09'0 0.3
2017-Dec-07 21:00N 53°54' E 009°09'2 3.3
2017-Dec-07 20:30N 53°53' E 009°06'0 0.3
2017-Dec-07 20:01N 53°53' E 009°06'0 0.2
2017-Dec-07 19:30N 53°53' E 009°06'0 0.4
2017-Dec-07 19:01N 53°53' E 009°06'0 0.1
2017-Dec-07 18:30N 53°53' E 009°06'0 0.3
2017-Dec-07 18:00N 53°53' E 009°06'4 8.0
2017-Dec-07 17:30N 53°51' E 008°60'816.2
2017-Dec-07 17:00N 53°51' E 008°46'2 3.7
2017-Dec-07 16:31N 53°52' E 008°43'0 0.0
2017-Dec-07 16:00N 53°52' E 008°43'0 0.0
2017-Dec-07 15:27N 53°52' E 008°43'0 0.0
2017-Dec-07 14:57N 53°52' E 008°43'0 0.0
2017-Dec-07 14:30N 53°52' E 008°43'0 0.0
2017-Dec-07 14:00N 53°52' E 008°43'0 0.0
2017-Dec-07 13:30N 53°52' E 008°43'0 0.0
2017-Dec-07 13:00N 53°52' E 008°43'0 0.0
2017-Dec-07 12:30N 53°52' E 008°43'0 0.0
2017-Dec-07 12:00N 53°52' E 008°43'0 0.0
2017-Dec-07 11:30N 53°52' E 008°43'0 0.0
2017-Dec-07 10:54N 53°52' E 008°43'0 0.0
2017-Dec-07 10:30N 53°52' E 008°43'0 0.1
2017-Dec-07 10:00N 53°52' E 008°44'2 4.5
2017-Dec-07 09:30N 53°54' E 008°42'612.0
2017-Dec-07 09:00N 53°58' E 008°34'713.7
2017-Dec-07 08:30N 53°59' E 008°23'714.9
2017-Dec-07 08:00N 53°59' E 008°10'7415.6
2017-Dec-07 03:15N 53°43' E 006°07'416.2
2017-Dec-07 03:00N 53°42' E 006°01'916.3
2017-Dec-07 02:29N 53°39' E 005°47'816.3
2017-Dec-07 02:00N 53°36' E 005°35'816.4
2017-Dec-07 01:31N 53°33' E 005°23'816.3
2017-Dec-07 01:01N 53°30' E 005°10'816.6
2017-Dec-07 00:31N 53°28' E 004°57'816.3
2017-Dec-07 00:00N 53°24' E 004°45'816.1
2017-Dec-06 23:29N 53°16' E 004°38'816.4
2017-Dec-06 23:00N 53°09' E 004°31'816.2
2017-Dec-06 22:30N 53°03' E 004°24'816.3
2017-Dec-06 22:01N 52°56' E 004°17'816.3
2017-Dec-06 21:30N 52°49' E 004°10'816.3
2017-Dec-06 21:01N 52°42' E 004°04'45 1.7
2017-Dec-05 18:00N 52°18' E 003°00'184 7.7 220 / 81028.010.8 8.0
2017-Dec-04 18:00N 54°42' W 000°12'5016.6 220 / 161025.210.8 7.9
2017-Dec-04 15:00N 55°30' W 000°36'6722.4 230 / 161023.410.8 8.2
2017-Dec-04 12:00N 56°36' W 001°00'3412.0 260 / 161022.610.8 8.2
2017-Dec-04 09:10N 57°07' W 001°25'316.8
2017-Dec-04 09:00N 57°10' W 001°27'3275.9
2017-Dec-04 09:00N 57°12' W 001°30'712.4 260 / 61021.810.8 7.5
2017-Dec-04 08:25N 57°19' W 001°32'3916.3
2017-Dec-04 06:00N 57°54' W 002°06'4115.7 250 / 121020.010.8 8.6
2017-Dec-04 03:23N 58°29' W 002°46'616.1
2017-Dec-04 03:00N 58°34' W 002°52'5327.4
2017-Dec-04 03:00N 58°30' W 002°48'1123.7 270 / 61019.2 5.4 8.1
2017-Dec-04 02:30N 58°40' W 002°60'5 9.1
2017-Dec-04 02:00N 58°43' W 003°06'4 7.4
2017-Dec-04 01:27N 58°44' W 003°14'511.6
2017-Dec-04 01:00N 58°45' W 003°23'1515.3
2017-Dec-04 00:00N 58°54' W 003°48'4916.5 290 / 101018.910.8 9.2
2017-Dec-03 21:00N 59°18' W 005°12'4916.3 290 1018.610.8
2017-Dec-03 18:00N 59°42' W 006°36'5117.0 300 / 101018.710.8 8.9
2017-Dec-03 15:00N 60°06' W 008°06'5117.1 300 / 121018.010.8 8.8
2017-Dec-03 12:00N 60°36' W 009°30'4715.8 300 / 161018.510.8 8.1
2017-Dec-03 09:00N 61°00' W 010°54'5016.8 300 / 161016.8 5.4 8.0
2017-Dec-03 06:00N 61°30' W 012°18'4113.7 280 / 161015.810.8 7.7
2017-Dec-03 03:00N 61°48' W 013°36'9716.1 280 / 171015.210.8 7.8
2017-Dec-02 21:00N 62°36' W 016°36'4214.2 280 / 251014.010.8 7.0
2017-Dec-02 18:00N 62°54' W 018°00'   270 / 251012.410.8 6.7

Dump ship's entire track history